createdAt,value
2018-12-09T00:01:11.897Z,10.83
2018-12-09T00:06:05.275Z,10.67
2018-12-09T00:11:07.727Z,9.70
2018-12-09T00:16:01.129Z,10.27
2018-12-09T00:20:54.516Z,13.90
2018-12-09T00:25:47.895Z,10.70
2018-12-09T00:30:41.321Z,8.30
2018-12-09T00:35:34.672Z,10.93
2018-12-09T00:40:28.066Z,12.80
2018-12-09T00:45:21.463Z,11.57
2018-12-09T00:50:14.858Z,10.07
2018-12-09T00:55:08.325Z,12.82
2018-12-09T01:00:02.107Z,11.53
2018-12-09T01:11:01.508Z,12.13
2018-12-09T01:15:54.972Z,15.27
2018-12-09T01:20:48.399Z,15.77
2018-12-09T01:25:41.803Z,13.60
2018-12-09T01:30:35.184Z,9.13
2018-12-09T01:35:28.575Z,11.07
2018-12-09T01:40:22.239Z,12.50
2018-12-09T01:45:15.629Z,12.23
2018-12-09T01:50:09.030Z,12.63
2018-12-09T01:55:03.066Z,14.97
2018-12-09T01:59:56.493Z,10.20
2018-12-09T02:04:49.918Z,6.93
2018-12-09T02:09:43.334Z,10.83
2018-12-09T02:14:36.739Z,11.17
2018-12-09T02:19:30.128Z,10.03
2018-12-09T02:24:23.589Z,12.13
2018-12-09T02:29:17.022Z,12.57
2018-12-09T02:34:10.478Z,9.90
2018-12-09T02:39:04.802Z,12.10
2018-12-09T02:43:58.195Z,16.23
2018-12-09T02:48:51.585Z,10.37
2018-12-09T02:53:44.975Z,11.83
2018-12-09T02:58:38.373Z,10.10
2018-12-09T03:03:31.767Z,15.80
2018-12-09T03:08:25.251Z,11.20
2018-12-09T03:13:18.632Z,8.63
2018-12-09T03:18:11.994Z,11.60
2018-12-09T03:23:05.402Z,10.40
2018-12-09T03:27:58.780Z,10.50
2018-12-09T03:32:52.164Z,11.77
2018-12-09T03:37:45.534Z,11.07
2018-12-09T03:42:38.899Z,9.70
2018-12-09T03:47:32.300Z,11.93
2018-12-09T03:52:25.695Z,13.73
2018-12-09T03:57:19.093Z,12.00
2018-12-09T04:02:12.473Z,10.87
2018-12-09T04:07:05.926Z,10.77
2018-12-09T04:11:59.298Z,8.03
2018-12-09T04:16:52.709Z,9.73
2018-12-09T04:21:46.445Z,9.87
2018-12-09T04:26:39.719Z,9.87
2018-12-09T04:31:33.100Z,15.80
2018-12-09T04:36:26.483Z,7.63
2018-12-09T04:41:19.856Z,10.27
2018-12-09T04:46:13.246Z,10.07
2018-12-09T04:51:06.633Z,10.97
2018-12-09T04:56:00.040Z,11.73
2018-12-09T05:00:56.453Z,8.43
2018-12-09T05:05:47.187Z,11.20
2018-12-09T05:10:40.562Z,8.23
2018-12-09T05:15:33.954Z,7.00
2018-12-09T05:20:27.341Z,12.13
2018-12-09T05:25:20.761Z,10.03
2018-12-09T05:30:14.176Z,9.03
2018-12-09T05:41:13.589Z,11.07
2018-12-09T05:46:08.483Z,13.93
2018-12-09T05:51:00.375Z,11.57
2018-12-09T05:55:53.744Z,8.80
2018-12-09T06:00:47.135Z,9.30
2018-12-09T06:05:40.510Z,11.27
2018-12-09T06:10:33.886Z,11.73
2018-12-09T06:15:27.258Z,8.63
2018-12-09T06:20:20.630Z,8.70
2018-12-09T06:25:20.257Z,10.43
2018-12-09T06:30:13.640Z,10.63
2018-12-09T06:35:07.343Z,8.87
2018-12-09T06:40:01.669Z,7.23
2018-12-09T06:44:55.052Z,9.33
2018-12-09T06:49:48.487Z,7.47
2018-12-09T06:54:41.858Z,9.20
2018-12-09T06:59:35.287Z,7.43
2018-12-09T07:04:28.681Z,9.37
2018-12-09T07:09:22.075Z,8.60
2018-12-09T07:14:15.469Z,9.43
2018-12-09T07:19:08.861Z,10.27
2018-12-09T07:24:02.256Z,8.47
2018-12-09T07:28:55.659Z,7.57
2018-12-09T07:33:49.060Z,6.57
2018-12-09T07:38:42.467Z,8.57
2018-12-09T07:43:35.862Z,7.30
2018-12-09T07:48:29.434Z,7.10
2018-12-09T07:53:23.021Z,7.27
2018-12-09T07:58:16.455Z,7.23
2018-12-09T08:03:09.835Z,7.83
2018-12-09T08:08:03.590Z,7.60
2018-12-09T08:12:56.999Z,8.87
2018-12-09T08:17:50.391Z,8.20
2018-12-09T08:22:43.812Z,7.93
2018-12-09T08:27:40.002Z,7.57
2018-12-09T08:32:33.510Z,6.23
2018-12-09T08:37:26.904Z,8.63
2018-12-09T08:42:20.280Z,5.63
2018-12-09T08:47:13.746Z,5.93
2018-12-09T08:52:07.184Z,8.00
2018-12-09T08:57:00.563Z,6.43
2018-12-09T09:01:53.948Z,5.47
2018-12-09T09:06:47.329Z,5.37
2018-12-09T09:11:40.763Z,5.17
2018-12-09T09:22:24.606Z,4.03
2018-12-09T09:27:19.481Z,4.73
2018-12-09T09:32:12.879Z,3.43
2018-12-09T09:37:06.491Z,4.67
2018-12-09T09:41:59.910Z,4.33
2018-12-09T09:46:53.316Z,3.80
2018-12-09T09:51:46.891Z,3.83
2018-12-09T09:56:40.340Z,4.60
2018-12-09T10:01:33.773Z,6.07
2018-12-09T10:06:27.175Z,5.77
2018-12-09T10:11:20.638Z,4.27
2018-12-09T10:16:14.486Z,3.20
2018-12-09T10:21:07.953Z,3.77
2018-12-09T10:26:01.652Z,4.97
2018-12-09T10:30:55.029Z,4.17
2018-12-09T10:35:48.411Z,4.40
2018-12-09T10:40:41.824Z,5.37
2018-12-09T10:45:35.230Z,5.53
2018-12-09T10:50:28.649Z,4.03
2018-12-09T10:55:22.257Z,4.73
2018-12-09T11:00:37.986Z,4.07
2018-12-09T11:05:31.403Z,3.77
2018-12-09T11:10:24.834Z,4.87
2018-12-09T11:15:18.536Z,5.20
2018-12-09T11:20:11.873Z,4.80
2018-12-09T11:25:05.694Z,3.53
2018-12-09T11:29:59.109Z,6.60
2018-12-09T11:34:52.484Z,5.90
2018-12-09T11:39:45.876Z,6.53
2018-12-09T11:44:39.344Z,5.10
2018-12-09T11:49:32.827Z,6.53
2018-12-09T11:54:26.211Z,3.70
2018-12-09T11:59:19.727Z,5.10
2018-12-09T12:04:13.125Z,4.63
2018-12-09T12:09:06.712Z,5.30
2018-12-09T12:14:00.153Z,6.57
2018-12-09T12:18:55.344Z,6.57
2018-12-09T12:23:48.733Z,5.33
2018-12-09T12:28:42.191Z,3.00
2018-12-09T12:33:35.592Z,5.13
2018-12-09T12:38:28.984Z,4.50
2018-12-09T12:43:22.382Z,8.17
2018-12-09T12:48:15.817Z,4.97
2018-12-09T12:53:09.221Z,6.33
2018-12-09T12:58:02.602Z,6.57
2018-12-09T13:02:55.991Z,4.40
2018-12-09T13:07:49.402Z,5.10
2018-12-09T13:12:42.793Z,4.20
2018-12-09T13:17:36.186Z,5.33
2018-12-09T13:22:29.612Z,4.90
2018-12-09T13:27:23.052Z,7.37
2018-12-09T13:32:16.697Z,5.97
2018-12-09T13:37:10.125Z,5.17
2018-12-09T13:42:03.664Z,5.57
2018-12-09T13:46:57.053Z,6.37
2018-12-09T13:51:50.475Z,9.10
2018-12-09T13:56:43.894Z,6.07
2018-12-09T14:01:37.365Z,6.37
2018-12-09T14:06:30.739Z,6.30
2018-12-09T14:11:24.146Z,5.47
2018-12-09T14:16:17.537Z,6.57
2018-12-09T14:21:10.939Z,7.50
2018-12-09T14:26:04.334Z,3.63
2018-12-09T14:30:57.767Z,7.00
2018-12-09T14:35:51.150Z,6.87
2018-12-09T14:40:44.536Z,6.27
2018-12-09T14:45:37.934Z,4.93
2018-12-09T14:50:31.505Z,6.87
2018-12-09T15:01:30.734Z,8.57
2018-12-09T15:06:25.579Z,5.13
2018-12-09T15:11:17.597Z,6.10
2018-12-09T15:16:11.025Z,6.50
2018-12-09T15:21:04.417Z,4.97
2018-12-09T15:25:57.801Z,7.87
2018-12-09T15:30:53.728Z,10.07
2018-12-09T15:35:48.984Z,4.57
2018-12-09T15:40:43.256Z,5.20
2018-12-09T15:45:36.656Z,4.80
2018-12-09T15:50:30.070Z,6.97
2018-12-09T15:55:23.617Z,6.87
2018-12-09T16:00:17.072Z,7.17
2018-12-09T16:05:10.553Z,6.00
2018-12-09T16:10:04.301Z,9.23
2018-12-09T16:14:57.691Z,6.33
2018-12-09T16:19:51.127Z,4.67
2018-12-09T16:24:44.514Z,7.47
2018-12-09T16:29:37.973Z,5.97
2018-12-09T16:34:31.377Z,8.43
2018-12-09T16:39:24.800Z,6.03
2018-12-09T16:44:18.294Z,5.47
2018-12-09T16:49:11.695Z,7.83
2018-12-09T16:54:05.104Z,8.40
2018-12-09T16:58:58.555Z,8.10
2018-12-09T17:03:52.014Z,9.43
2018-12-09T17:08:45.405Z,5.80
2018-12-09T17:13:38.788Z,6.80
2018-12-09T17:18:32.488Z,9.23
2018-12-09T17:23:25.943Z,6.80
2018-12-09T17:28:19.347Z,7.13
2018-12-09T17:33:12.778Z,8.67
2018-12-09T17:38:06.176Z,10.40
2018-12-09T17:42:59.556Z,11.30
2018-12-09T17:47:53.034Z,6.87
2018-12-09T17:52:46.458Z,9.03
2018-12-09T17:57:39.963Z,8.77
2018-12-09T18:02:33.344Z,6.93
2018-12-09T18:07:26.774Z,7.90
2018-12-09T18:12:20.229Z,6.80
2018-12-09T18:17:13.607Z,6.63
2018-12-09T18:22:06.990Z,8.77
2018-12-09T18:27:00.376Z,6.73
2018-12-09T18:31:53.750Z,7.93
2018-12-09T18:36:47.251Z,7.57
2018-12-09T18:41:40.656Z,7.00
2018-12-09T18:46:34.064Z,8.83
2018-12-09T18:51:27.478Z,10.80
2018-12-09T18:56:21.661Z,7.73
2018-12-09T19:01:15.207Z,10.00
2018-12-09T19:06:08.675Z,7.47
2018-12-09T19:11:01.998Z,11.63
2018-12-09T19:15:55.547Z,10.37
2018-12-09T19:20:48.922Z,6.23
2018-12-09T19:25:42.446Z,9.47
2018-12-09T19:30:35.905Z,8.93
2018-12-09T19:35:29.315Z,9.07
2018-12-09T19:40:22.750Z,5.47
2018-12-09T19:45:16.161Z,10.77
2018-12-09T19:50:09.582Z,9.57
2018-12-09T19:55:02.979Z,10.50
2018-12-09T19:59:56.414Z,7.30
2018-12-09T20:04:49.801Z,10.70
2018-12-09T20:09:43.197Z,7.97
2018-12-09T20:14:36.677Z,7.17
2018-12-09T20:19:30.042Z,9.10
2018-12-09T20:24:23.418Z,8.93
2018-12-09T20:29:16.888Z,10.30
2018-12-09T20:34:10.410Z,6.87
2018-12-09T20:39:04.303Z,6.83
2018-12-09T20:43:57.768Z,8.93
2018-12-09T20:48:51.872Z,10.57
2018-12-09T20:53:45.309Z,7.70
2018-12-09T20:58:38.707Z,7.63
2018-12-09T21:03:32.104Z,12.17
2018-12-09T21:08:25.529Z,10.17
2018-12-09T21:13:19.015Z,10.37
2018-12-09T21:18:12.489Z,10.07
2018-12-09T21:23:05.920Z,9.17
2018-12-09T21:27:59.357Z,5.60
2018-12-09T21:32:52.838Z,6.87
2018-12-09T21:37:46.240Z,8.10
2018-12-09T21:42:39.710Z,11.23
2018-12-09T21:47:33.130Z,9.87
2018-12-09T21:52:26.571Z,9.03
2018-12-09T21:57:19.980Z,8.70
2018-12-09T22:02:16.510Z,7.13
2018-12-09T22:07:09.906Z,5.83
2018-12-09T22:12:03.693Z,8.13
2018-12-09T22:16:57.069Z,7.60
2018-12-09T22:21:50.548Z,7.77
2018-12-09T22:32:49.962Z,6.87
2018-12-09T22:37:43.333Z,7.20
2018-12-09T22:42:36.720Z,9.43
2018-12-09T22:47:30.089Z,6.93
2018-12-09T22:52:23.479Z,6.90
2018-12-09T22:57:16.864Z,7.53
2018-12-09T23:02:27.974Z,6.43
2018-12-09T23:07:39.196Z,10.60
2018-12-09T23:12:32.528Z,7.27
2018-12-09T23:17:26.378Z,6.67
2018-12-09T23:22:19.762Z,7.57
2018-12-09T23:27:13.193Z,6.27
2018-12-09T23:32:06.601Z,6.67
2018-12-09T23:36:59.992Z,6.80
2018-12-09T23:41:53.371Z,5.63
2018-12-09T23:46:46.754Z,4.70
2018-12-09T23:51:40.131Z,6.27
2018-12-09T23:56:33.504Z,8.53
